Time;durP1;ratioP1;P1;durP2;ratioP2;P2;SDS_P1;SDS_P2;PMS_P1;PMS_P2;Temp;Humidity;BMP_temperature;BMP_pressure;BME280_temperature;BME280_humidity;BME280_pressure;Samples;Min_cycle;Max_cycle;Signal;HPM_P1;HPM_P2
2023/08/01 00:01:52;;;;;;;141.35;131.73;;;;;;;17.91;100.00;100638.06;5030487;28;20140;-82
2023/08/01 00:04:20;;;;;;;103.38;97.18;;;;;;;17.88;100.00;100628.63;5014531;28;20050;-82
2023/08/01 00:06:47;;;;;;;100.35;93.95;;;;;;;17.98;100.00;100627.94;5023309;28;20076;-83
2023/08/01 00:09:27;;;;;;;86.72;81.18;;;;;;;17.83;100.00;100617.88;5016549;28;20092;-83
2023/08/01 00:11:54;;;;;;;48.97;44.58;;;;;;;18.04;100.00;100616.16;5031629;28;20053;-83
2023/08/01 00:14:24;;;;;;;48.92;44.53;;;;;;;17.87;100.00;100616.28;5034196;28;20056;-87
2023/08/01 00:17:04;;;;;;;53.67;49.00;;;;;;;18.10;100.00;100607.06;5035663;28;20155;-86
2023/08/01 00:19:41;;;;;;;87.40;81.72;;;;;;;17.78;100.00;100621.31;5020856;28;20046;-86
2023/08/01 00:22:08;;;;;;;89.85;84.05;;;;;;;17.89;100.00;100614.16;5015514;28;20136;-86
2023/08/01 00:24:38;;;;;;;95.47;89.28;;;;;;;17.75;100.00;100602.97;5026896;28;20049;-87
2023/08/01 00:27:10;;;;;;;78.80;73.20;;;;;;;17.76;100.00;100603.78;5035458;28;20049;-87
2023/08/01 00:29:37;;;;;;;75.75;70.53;;;;;;;17.26;100.00;100611.13;5035196;28;20050;-87
2023/08/01 00:32:13;;;;;;;48.47;44.03;;;;;;;17.48;100.00;100605.69;5035288;28;20057;-87
2023/08/01 00:34:43;;;;;;;52.92;48.22;;;;;;;17.31;100.00;100605.81;5035406;28;20525;-86
2023/08/01 00:37:19;;;;;;;52.63;47.83;;;;;;;17.31;100.00;100608.50;5035123;28;20052;-86
2023/08/01 00:39:59;;;;;;;58.85;53.35;;;;;;;17.46;100.00;100590.91;5035005;28;20046;-87
2023/08/01 00:42:37;;;;;;;55.67;50.55;;;;;;;17.71;100.00;100599.19;5035111;28;20124;-86
2023/08/01 00:45:13;;;;;;;54.20;49.50;;;;;;;17.74;100.00;100589.81;5035129;28;20132;-87
2023/08/01 00:47:40;;;;;;;54.10;49.63;;;;;;;17.58;100.00;100596.94;5034674;28;20054;-87
2023/08/01 00:50:08;;;;;;;52.33;47.55;;;;;;;17.17;100.00;100597.34;5025944;28;20417;-86
2023/08/01 00:52:35;;;;;;;56.13;51.38;;;;;;;17.65;100.00;100602.09;5034580;28;20532;-87
2023/08/01 00:55:09;;;;;;;50.55;46.22;;;;;;;17.83;100.00;100591.81;5020044;28;20498;-86
2023/08/01 00:57:42;;;;;;;51.45;47.00;;;;;;;17.48;100.00;100588.78;5034107;28;20053;-87
2023/08/01 01:00:15;;;;;;;55.33;50.40;;;;;;;17.50;100.00;100584.78;5034325;28;20041;-87
2023/08/01 01:02:42;;;;;;;51.70;46.67;;;;;;;17.33;100.00;100576.81;5034451;28;20049;-86
2023/08/01 01:05:49;;;;;;;48.08;43.72;;;;;;;17.67;100.00;100578.47;5034581;28;20427;-86
2023/08/01 01:08:25;;;;;;;49.85;45.55;;;;;;;17.87;100.00;100581.34;5025178;28;20060;-86
2023/08/01 01:10:59;;;;;;;49.65;45.20;;;;;;;17.47;100.00;100579.13;5034416;28;20049;-87
2023/08/01 01:13:44;;;;;;;53.30;48.45;;;;;;;17.44;100.00;100580.44;5023044;28;20049;-87
2023/08/01 01:16:21;;;;;;;52.10;47.30;;;;;;;17.24;100.00;100570.31;5034344;28;20045;-87
2023/08/01 01:19:00;;;;;;;77.60;72.15;;;;;;;17.19;100.00;100564.91;5034219;28;20042;-87
2023/08/01 01:21:29;;;;;;;72.38;66.80;;;;;;;17.60;100.00;100566.06;5033219;28;20061;-86
2023/08/01 01:24:03;;;;;;;63.15;58.38;;;;;;;17.62;100.00;100558.56;5033070;28;20053;-86
2023/08/01 01:26:42;;;;;;;46.17;42.05;;;;;;;17.63;100.00;100562.06;5025648;28;20046;-86
2023/08/01 01:29:24;;;;;;;45.08;40.78;;;;;;;17.44;100.00;100560.84;5034401;28;20049;-86
2023/08/01 01:31:53;;;;;;;46.42;42.15;;;;;;;17.01;100.00;100559.88;5034428;28;20072;-87
2023/08/01 01:34:23;;;;;;;44.40;40.22;;;;;;;16.88;100.00;100561.91;5014481;28;20434;-86
2023/08/01 01:36:51;;;;;;;46.30;42.10;;;;;;;17.30;100.00;100558.56;5014314;28;20045;-83
2023/08/01 01:39:18;;;;;;;45.88;41.75;;;;;;;17.49;100.00;100561.69;5028928;28;22024;-83
2023/08/01 01:41:51;;;;;;;45.55;41.45;;;;;;;17.35;100.00;100560.47;5033802;28;20050;-87
2023/08/01 01:44:18;;;;;;;47.97;43.15;;;;;;;17.22;100.00;100569.75;5033406;28;20140;-87
2023/08/01 01:46:46;;;;;;;46.92;42.42;;;;;;;17.25;100.00;100563.88;5033372;28;20111;-87
2023/08/01 01:49:16;;;;;;;46.42;41.97;;;;;;;17.17;100.00;100567.81;5033202;28;20177;-86
2023/08/01 01:52:02;;;;;;;44.28;40.25;;;;;;;17.37;100.00;100571.78;5033663;28;20057;-86
2023/08/01 01:54:45;;;;;;;45.05;40.55;;;;;;;17.16;100.00;100571.59;5019271;28;20046;-86
2023/08/01 01:57:12;;;;;;;45.10;40.95;;;;;;;17.23;100.00;100568.69;5013675;28;20050;-86
2023/08/01 01:59:51;;;;;;;46.70;42.40;;;;;;;17.07;100.00;100577.66;5027601;28;20049;-87
2023/08/01 02:02:18;;;;;;;46.10;41.80;;;;;;;16.30;100.00;100574.00;5033096;28;20520;-87
2023/08/01 02:04:53;;;;;;;50.65;45.90;;;;;;;16.78;100.00;100574.38;5033130;28;20037;-87
2023/08/01 02:07:33;;;;;;;46.80;42.38;;;;;;;17.09;100.00;100570.94;5032955;28;20046;-87
2023/08/01 02:10:00;;;;;;;45.00;40.60;;;;;;;16.98;100.00;100585.34;5012747;28;20129;-87
2023/08/01 02:12:27;;;;;;;45.55;41.35;;;;;;;16.91;100.00;100572.13;5024372;28;20129;-87
2023/08/01 02:15:01;;;;;;;46.13;41.72;;;;;;;16.90;100.00;100564.31;5029483;28;20050;-87
2023/08/01 02:17:34;;;;;;;45.42;41.08;;;;;;;17.00;100.00;100571.66;5017542;28;20062;-86
2023/08/01 02:20:00;;;;;;;;;;;;;;;17.01;100.00;100574.09;5012876;28;20049;-87
2023/08/01 02:22:28;;;;;;;43.33;38.88;;;;;;;16.96;100.00;100576.72;5012876;28;19921;-87
2023/08/01 02:24:57;;;;;;;43.85;39.35;;;;;;;16.91;100.00;100580.19;5014706;28;20450;-86
2023/08/01 02:27:24;;;;;;;45.05;40.78;;;;;;;16.89;100.00;100576.13;5012729;28;20058;-87
2023/08/01 02:29:51;;;;;;;46.15;41.47;;;;;;;16.80;100.00;100580.31;5013057;28;20038;-87
2023/08/01 02:32:18;;;;;;;44.47;40.17;;;;;;;17.03;100.00;100579.22;5015630;28;20532;-87
2023/08/01 02:34:45;;;;;;;40.60;36.53;;;;;;;17.09;100.00;100579.00;5032105;28;20055;-87
2023/08/01 02:37:14;;;;;;;43.90;39.90;;;;;;;17.05;100.00;100583.25;5032094;28;20103;-87
2023/08/01 02:39:41;;;;;;;44.03;39.75;;;;;;;17.04;100.00;100573.59;5027999;28;20572;-81
2023/08/01 02:42:10;;;;;;;41.08;36.95;;;;;;;16.42;100.00;100588.09;5030240;28;20139;-81
2023/08/01 02:44:36;;;;;;;42.65;38.55;;;;;;;16.70;100.00;100589.81;5029292;28;20494;-82
2023/08/01 02:47:11;;;;;;;41.42;37.40;;;;;;;16.70;100.00;100591.66;5029697;28;20060;-87
2023/08/01 02:49:38;;;;;;;43.00;38.85;;;;;;;16.81;100.00;100593.44;5029757;28;20148;-86
2023/08/01 02:52:11;;;;;;;40.15;36.45;;;;;;;16.96;100.00;100595.50;5032192;28;20509;-86
2023/08/01 02:54:38;;;;;;;42.47;38.47;;;;;;;16.19;100.00;100588.34;5032066;28;20473;-87
2023/08/01 02:57:07;;;;;;;43.72;39.58;;;;;;;16.03;100.00;100598.78;5032070;28;20429;-87
2023/08/01 02:59:38;;;;;;;46.45;41.60;;;;;;;16.39;100.00;100606.56;5031856;28;21771;-87
2023/08/01 03:02:05;;;;;;;44.75;40.05;;;;;;;16.39;100.00;100602.00;5031365;28;20052;-87
2023/08/01 03:04:48;;;;;;;41.55;37.50;;;;;;;16.86;100.00;100604.25;5031973;28;20429;-87
2023/08/01 03:07:15;;;;;;;40.03;36.05;;;;;;;17.02;100.00;100602.53;5016963;28;20620;-86
2023/08/01 03:09:43;;;;;;;39.75;35.83;;;;;;;16.96;100.00;100602.75;5015029;28;20053;-86
2023/08/01 03:12:16;;;;;;;38.67;34.88;;;;;;;17.12;100.00;100610.69;5032084;28;20045;-86
2023/08/01 03:14:47;;;;;;;43.75;39.75;;;;;;;17.13;100.00;100604.28;5014985;28;20060;-86
2023/08/01 03:17:14;;;;;;;46.47;42.63;;;;;;;17.10;100.00;100610.16;5012437;28;20141;-85
2023/08/01 03:19:56;;;;;;;46.55;42.55;;;;;;;17.00;100.00;100617.28;5025777;28;20498;-82
2023/08/01 03:22:23;;;;;;;46.95;42.75;;;;;;;16.96;100.00;100613.47;5021736;28;20046;-86
2023/08/01 03:24:50;;;;;;;50.78;46.47;;;;;;;17.03;100.00;100616.78;5024626;28;20505;-86
2023/08/01 03:27:34;;;;;;;50.20;45.90;;;;;;;17.13;100.00;100617.72;5016063;28;20093;-86
2023/08/01 03:30:53;;;;;;;50.17;45.88;;;;;;;16.85;100.00;100621.41;5029091;28;20132;-86
2023/08/01 03:33:21;;;;;;;57.03;52.63;;;;;;;17.02;100.00;100625.88;5035888;28;20049;-86
2023/08/01 03:35:48;;;;;;;49.83;45.35;;;;;;;17.16;100.00;100619.88;5035457;28;20049;-86
2023/08/01 03:38:15;;;;;;;54.13;49.20;;;;;;;17.42;100.00;100630.88;5034869;28;20137;-81
2023/08/01 03:40:52;;;;;;;60.92;55.42;;;;;;;17.57;100.00;100625.66;5030559;28;20052;-81
2023/08/01 03:43:36;;;;;;;46.35;42.00;;;;;;;17.61;100.00;100620.59;5034957;28;20054;-85
2023/08/01 03:46:04;;;;;;;47.65;43.17;;;;;;;17.70;100.00;100631.66;5035880;28;20057;-85
2023/08/01 03:48:43;;;;;;;48.53;43.95;;;;;;;17.85;100.00;100615.72;5035811;28;20456;-81
2023/08/01 03:51:10;;;;;;;48.92;44.47;;;;;;;17.75;100.00;100613.72;5033822;28;20041;-81
2023/08/01 03:53:49;;;;;;;59.67;55.03;;;;;;;17.85;100.00;100618.41;5033856;28;20426;-81
2023/08/01 03:56:19;;;;;;;60.38;55.83;;;;;;;18.05;100.00;100621.25;5031358;28;20049;-86
2023/08/01 03:59:00;;;;;;;54.97;49.80;;;;;;;18.02;100.00;100610.22;5035665;28;20049;-85
2023/08/01 04:01:27;;;;;;;58.30;53.33;;;;;;;18.14;100.00;100616.22;5035550;28;20053;-85
2023/08/01 04:03:58;;;;;;;62.20;57.25;;;;;;;18.01;100.00;100613.97;5035572;28;20091;-85
2023/08/01 04:06:38;;;;;;;58.63;53.75;;;;;;;18.22;100.00;100617.63;5035460;28;20053;-85
2023/08/01 04:09:10;;;;;;;55.53;51.15;;;;;;;18.10;100.00;100619.69;5035556;28;20491;-85
2023/08/01 04:11:37;;;;;;;58.85;53.75;;;;;;;18.21;100.00;100613.28;5034995;28;20049;-81
2023/08/01 04:14:05;;;;;;;57.33;52.72;;;;;;;18.21;100.00;100616.78;5035407;28;20085;-81
2023/08/01 04:16:36;;;;;;;61.10;55.90;;;;;;;18.21;100.00;100621.34;5035341;28;20053;-85
2023/08/01 04:19:32;;;;;;;43.75;39.55;;;;;;;17.84;100.00;100631.03;5035563;28;20046;-86
2023/08/01 04:22:00;;;;;;;43.65;38.92;;;;;;;18.21;100.00;100624.84;5023627;28;20046;-85
2023/08/01 04:24:27;;;;;;;54.45;49.60;;;;;;;18.38;100.00;100624.69;5015297;28;20056;-85
2023/08/01 04:26:54;;;;;;;53.22;48.78;;;;;;;18.62;100.00;100626.97;5020333;28;20116;-86
2023/08/01 04:29:30;;;;;;;57.85;52.95;;;;;;;18.70;100.00;100629.19;5035188;28;20136;-85
2023/08/01 04:32:03;;;;;;;61.83;56.53;;;;;;;18.79;100.00;100622.25;5015544;28;20152;-84
2023/08/01 04:34:39;;;;;;;57.88;53.20;;;;;;;18.94;100.00;100621.47;5014707;28;20048;-85
2023/08/01 04:37:20;;;;;;;63.92;58.85;;;;;;;19.04;100.00;100626.13;5015645;28;20053;-85
2023/08/01 04:40:22;;;;;;;59.75;55.03;;;;;;;19.04;100.00;100626.13;5015984;28;20434;-85
2023/08/01 04:42:50;;;;;;;48.72;44.13;;;;;;;19.09;100.00;100635.03;5030146;28;20137;-86
2023/08/01 04:45:55;;;;;;;46.67;42.47;;;;;;;19.27;100.00;100643.66;5035237;28;20440;-85
2023/08/01 04:48:26;;;;;;;47.05;42.75;;;;;;;19.33;100.00;100653.38;5035365;28;20041;-85
2023/08/01 04:51:00;;;;;;;47.47;43.17;;;;;;;19.53;100.00;100644.53;5034780;28;20053;-85
2023/08/01 04:53:34;;;;;;;50.15;45.40;;;;;;;19.66;100.00;100642.16;5035281;28;20049;-85
2023/08/01 04:56:23;;;;;;;50.15;45.10;;;;;;;19.72;100.00;100642.16;5035104;28;20127;-85
2023/08/01 04:59:01;;;;;;;48.78;44.28;;;;;;;19.82;100.00;100642.19;5034870;28;20524;-85
2023/08/01 05:20:30;;;;;;;56.58;51.38;;;;;;;20.73;100.00;100646.66;4725007;27;10001490;-83
2023/08/01 05:22:58;;;;;;;53.80;49.00;;;;;;;20.75;100.00;100646.34;5054545;28;20052;-83
2023/08/01 05:25:24;;;;;;;52.78;47.88;;;;;;;20.91;100.00;100647.94;5061969;28;20505;-83
2023/08/01 05:27:52;;;;;;;51.28;46.38;;;;;;;20.87;100.00;100654.16;5063659;28;20468;-84
2023/08/01 05:30:18;;;;;;;51.60;46.92;;;;;;;20.97;100.00;100651.44;5062199;28;20056;-83
2023/08/01 05:32:46;;;;;;;50.97;46.33;;;;;;;21.20;100.00;100649.94;5062367;28;20729;-83
2023/08/01 05:35:13;;;;;;;50.78;45.97;;;;;;;21.27;100.00;100653.13;5061922;28;20063;-83
2023/08/01 05:37:42;;;;;;;49.28;44.80;;;;;;;21.42;100.00;100663.91;5062755;28;20037;-83
2023/08/01 05:40:10;;;;;;;49.95;45.33;;;;;;;21.47;100.00;100657.66;5064009;28;20515;-83
2023/08/01 05:42:37;;;;;;;50.30;45.75;;;;;;;21.85;100.00;100660.66;5061191;28;20044;-83
2023/08/01 05:45:05;;;;;;;46.65;42.35;;;;;;;21.91;100.00;100651.41;5065107;28;20053;-83
2023/08/01 05:47:32;;;;;;;47.38;43.17;;;;;;;22.32;100.00;100662.66;5069140;28;20109;-92
2023/08/01 05:49:59;;;;;;;45.70;41.60;;;;;;;22.60;100.00;100649.38;5068690;28;20059;-93
2023/08/01 05:52:25;;;;;;;46.55;42.38;;;;;;;22.65;100.00;100649.34;5063766;28;20524;-82
2023/08/01 05:54:53;;;;;;;45.55;41.30;;;;;;;22.67;100.00;100654.47;5061616;28;20057;-84
2023/08/01 05:57:20;;;;;;;43.70;39.63;;;;;;;23.14;100.00;100655.53;5057477;28;20049;-83
2023/08/01 05:59:47;;;;;;;43.60;39.65;;;;;;;22.91;100.00;100649.06;5064300;28;20481;-93
2023/08/01 06:02:14;;;;;;;43.78;39.42;;;;;;;22.89;100.00;100638.50;5067248;28;20673;-83
2023/08/01 06:04:41;;;;;;;43.95;39.85;;;;;;;23.45;100.00;100645.06;5061552;28;20048;-83
2023/08/01 06:07:07;;;;;;;44.17;39.90;;;;;;;23.49;100.00;100635.28;5061709;28;20437;-83
2023/08/01 06:09:34;;;;;;;41.53;37.53;;;;;;;23.72;100.00;100630.88;5061305;28;20477;-83
2023/08/01 06:12:03;;;;;;;40.45;36.35;;;;;;;23.41;100.00;100631.31;5061434;28;20580;-83
2023/08/01 06:14:30;;;;;;;40.58;36.47;;;;;;;23.81;100.00;100614.72;5055136;28;20052;-83
2023/08/01 06:16:57;;;;;;;37.97;34.05;;;;;;;23.95;100.00;100621.81;5060876;28;20071;-83
2023/08/01 06:19:24;;;;;;;38.78;35.17;;;;;;;23.92;100.00;100619.69;5058326;28;20049;-83
2023/08/01 06:21:51;;;;;;;37.33;33.78;;;;;;;23.97;100.00;100624.22;5052016;28;20067;-83
2023/08/01 06:24:18;;;;;;;37.28;33.78;;;;;;;24.20;100.00;100611.59;5050786;28;20055;-83
2023/08/01 06:26:45;;;;;;;36.72;33.25;;;;;;;24.02;100.00;100602.41;5047704;28;20132;-83
2023/08/01 06:29:13;;;;;;;39.20;35.30;;;;;;;24.52;100.00;100615.38;5048073;28;20072;-83
2023/08/01 06:31:40;;;;;;;36.28;32.75;;;;;;;24.56;100.00;100614.47;5047614;28;20045;-83
2023/08/01 06:34:07;;;;;;;36.08;32.47;;;;;;;24.92;100.00;100608.28;5047982;28;20119;-83
2023/08/01 06:36:34;;;;;;;35.38;31.98;;;;;;;25.02;100.00;100599.13;5048039;28;20049;-83
2023/08/01 06:39:02;;;;;;;33.35;30.05;;;;;;;25.23;100.00;100597.56;5047461;28;20053;-83
2023/08/01 06:41:28;;;;;;;35.33;31.88;;;;;;;25.53;100.00;100603.41;5047846;28;20447;-83
2023/08/01 06:43:55;;;;;;;35.15;31.60;;;;;;;25.28;100.00;100602.91;5047745;28;20134;-83
2023/08/01 06:46:24;;;;;;;32.20;28.90;;;;;;;25.44;100.00;100606.06;5046872;28;20049;-83
2023/08/01 06:48:51;;;;;;;31.73;28.42;;;;;;;25.36;100.00;100604.88;5046955;28;20051;-83
2023/08/01 06:51:18;;;;;;;31.95;28.73;;;;;;;24.86;100.00;100606.78;5047593;28;20052;-83
2023/08/01 06:53:45;;;;;;;28.77;26.02;;;;;;;25.20;100.00;100595.47;5047107;28;20493;-83
2023/08/01 06:56:11;;;;;;;29.17;26.38;;;;;;;25.15;100.00;100597.53;5053746;28;20445;-83
2023/08/01 06:58:38;;;;;;;30.20;27.13;;;;;;;24.97;100.00;100597.31;5052385;28;20067;-83
2023/08/01 07:01:05;;;;;;;29.40;26.63;;;;;;;24.79;100.00;100606.41;5047851;28;20413;-83
2023/08/01 07:03:34;;;;;;;30.30;27.20;;;;;;;25.48;100.00;100611.69;5047307;28;20139;-83
2023/08/01 07:06:01;;;;;;;31.90;28.73;;;;;;;25.63;100.00;100599.63;5046745;28;20459;-83
2023/08/01 07:08:28;;;;;;;31.63;27.88;;;;;;;25.64;100.00;100602.06;5048017;28;20049;-83
2023/08/01 07:10:57;;;;;;;29.92;26.85;;;;;;;25.51;100.00;100594.78;5051857;28;20048;-92
2023/08/01 07:13:25;;;;;;;29.58;26.65;;;;;;;25.65;100.00;100602.84;5049230;28;20501;-84
2023/08/01 07:15:52;;;;;;;29.48;26.55;;;;;;;25.26;100.00;100596.97;5046622;28;20472;-83
2023/08/01 07:18:19;;;;;;;30.70;26.33;;;;;;;25.44;100.00;100605.25;5046894;28;20049;-83
2023/08/01 07:20:47;;;;;;;29.55;26.60;;;;;;;25.43;100.00;100584.63;5046454;28;20048;-83
2023/08/01 07:23:14;;;;;;;29.08;26.33;;;;;;;25.04;100.00;100586.84;5046780;28;20053;-84
2023/08/01 07:25:41;;;;;;;28.33;25.83;;;;;;;25.45;100.00;100585.13;5047108;28;20148;-84
2023/08/01 07:28:08;;;;;;;28.42;25.65;;;;;;;25.56;100.00;100584.56;5046691;28;20049;-83
2023/08/01 07:30:35;;;;;;;29.25;26.55;;;;;;;25.54;100.00;100584.06;5045989;28;20053;-84
2023/08/01 07:33:02;;;;;;;28.77;26.17;;;;;;;25.72;100.00;100586.88;5046442;28;20551;-84
2023/08/01 07:35:29;;;;;;;28.98;26.08;;;;;;;25.31;100.00;100582.47;5053087;28;20041;-84
2023/08/01 07:37:57;;;;;;;31.27;26.58;;;;;;;25.32;100.00;100582.13;5048920;28;20053;-84
2023/08/01 07:40:24;;;;;;;29.05;26.40;;;;;;;25.92;100.00;100572.78;5046490;28;20114;-84
2023/08/01 07:42:51;;;;;;;29.83;27.00;;;;;;;26.44;100.00;100569.47;5046628;28;20052;-84
2023/08/01 07:45:28;;;;;;;29.08;25.92;;;;;;;26.25;100.00;100575.97;5049992;28;20055;-90
2023/08/01 07:47:55;;;;;;;28.20;25.48;;;;;;;26.31;100.00;100578.56;5050769;28;20060;-90
2023/08/01 07:50:22;;;;;;;29.10;26.13;;;;;;;26.49;100.00;100574.81;5048179;28;20045;-83
2023/08/01 07:52:49;;;;;;;29.42;26.33;;;;;;;26.49;100.00;100567.44;5048211;28;20087;-84
2023/08/01 07:55:18;;;;;;;28.55;25.80;;;;;;;26.08;100.00;100575.91;5045957;28;20041;-84
2023/08/01 07:57:45;;;;;;;28.85;26.02;;;;;;;26.26;100.00;100571.34;5045880;28;20518;-83
2023/08/01 08:00:28;;;;;;;28.10;25.60;;;;;;;26.25;100.00;100575.97;5050176;28;20052;-92
2023/08/01 08:02:55;;;;;;;28.20;25.77;;;;;;;26.63;100.00;100578.22;5047724;28;20061;-84
2023/08/01 08:05:22;;;;;;;28.70;26.20;;;;;;;26.97;100.00;100573.16;5045976;28;20056;-83
2023/08/01 08:07:49;;;;;;;28.10;25.52;;;;;;;26.23;100.00;100577.41;5047011;28;20120;-83
2023/08/01 08:10:18;;;;;;;27.52;24.90;;;;;;;26.62;100.00;100570.34;5044809;28;20060;-83
2023/08/01 08:12:45;;;;;;;26.55;24.35;;;;;;;27.68;100.00;100572.78;5047029;28;20579;-83
2023/08/01 08:15:13;;;;;;;25.58;23.27;;;;;;;27.77;100.00;100565.38;5045702;28;20084;-83
2023/08/01 08:17:40;;;;;;;24.10;21.83;;;;;;;28.16;100.00;100563.50;5046146;28;20476;-83
2023/08/01 08:20:08;;;;;;;24.65;22.65;;;;;;;28.38;100.00;100565.97;5045282;28;20071;-84
2023/08/01 08:22:35;;;;;;;26.00;23.75;;;;;;;27.94;100.00;100559.91;5045403;28;20048;-85
2023/08/01 08:25:02;;;;;;;27.15;24.55;;;;;;;28.44;100.00;100563.88;5045477;28;20056;-84
2023/08/01 08:27:30;;;;;;;28.33;25.23;;;;;;;28.94;100.00;100565.81;5045644;28;20080;-84
2023/08/01 08:29:57;;;;;;;29.05;26.08;;;;;;;29.27;100.00;100552.22;5045241;28;20099;-84
2023/08/01 08:32:24;;;;;;;28.27;25.65;;;;;;;28.79;100.00;100544.53;5045439;28;20128;-84
2023/08/01 08:34:51;;;;;;;27.05;24.45;;;;;;;29.08;100.00;100538.22;5045223;28;20052;-84
2023/08/01 08:37:18;;;;;;;28.70;25.88;;;;;;;28.97;100.00;100546.00;5046136;28;20061;-84
2023/08/01 08:39:45;;;;;;;26.63;23.67;;;;;;;29.20;100.00;100543.75;5049985;28;20037;-84
2023/08/01 08:42:12;;;;;;;28.23;25.42;;;;;;;28.98;100.00;100542.94;5045949;28;20045;-84
2023/08/01 08:44:44;;;;;;;26.40;24.10;;;;;;;29.15;100.00;100541.22;5049560;28;20044;-85
2023/08/01 08:47:12;;;;;;;26.10;23.90;;;;;;;28.90;100.00;100543.03;5044050;28;20454;-84
2023/08/01 08:49:40;;;;;;;24.35;22.05;;;;;;;28.32;100.00;100537.25;5050347;28;20556;-84
2023/08/01 08:52:08;;;;;;;26.90;24.38;;;;;;;28.47;100.00;100531.25;5047505;28;20051;-84
2023/08/01 08:54:37;;;;;;;27.88;25.38;;;;;;;28.86;100.00;100523.72;5048197;28;20049;-84
2023/08/01 08:57:07;;;;;;;27.63;25.23;;;;;;;29.00;100.00;100512.53;5049945;28;20425;-84
2023/08/01 08:59:35;;;;;;;29.25;26.65;;;;;;;28.58;100.00;100526.19;5052059;28;20069;-84
2023/08/01 09:02:04;;;;;;;29.48;26.77;;;;;;;28.48;100.00;100521.13;5049570;28;20044;-83
2023/08/01 09:04:32;;;;;;;29.48;26.67;;;;;;;29.02;100.00;100517.69;5049665;28;20045;-84
2023/08/01 09:07:07;;;;;;;32.42;29.45;;;;;;;28.82;100.00;100511.88;5047135;28;20060;-84
2023/08/01 09:09:35;;;;;;;31.60;29.00;;;;;;;28.99;100.00;100516.41;5051911;28;20114;-90
2023/08/01 09:12:02;;;;;;;28.42;25.92;;;;;;;29.35;100.00;100517.69;5051974;28;20548;-93
2023/08/01 09:14:29;;;;;;;31.23;28.25;;;;;;;29.50;100.00;100510.78;5058902;28;20072;-92
2023/08/01 09:16:56;;;;;;;28.70;25.98;;;;;;;30.00;100.00;100516.00;5052429;28;20102;-91
2023/08/01 09:19:27;;;;;;;30.08;27.17;;;;;;;30.06;100.00;100511.91;5051365;28;20081;-92
2023/08/01 09:22:14;;;;;;;27.42;24.88;;;;;;;30.38;100.00;100501.19;5052093;28;20052;-90
2023/08/01 09:25:15;;;;;;;38.22;34.05;;;;;;;30.63;100.00;100507.41;5052057;28;20049;-92
2023/08/01 09:27:42;;;;;;;44.70;39.80;;;;;;;30.97;100.00;100497.84;5051433;28;20049;-91
2023/08/01 09:30:13;;;;;;;44.72;38.92;;;;;;;31.14;100.00;100488.53;5053744;28;20041;-93
2023/08/01 09:32:40;;;;;;;32.08;29.13;;;;;;;30.94;100.00;100484.03;5065216;28;20057;-91
2023/08/01 09:35:10;;;;;;;28.30;25.90;;;;;;;31.21;100.00;100483.22;5051893;28;20136;-90
2023/08/01 09:37:41;;;;;;;26.35;23.88;;;;;;;31.41;100.00;100486.94;5068840;28;20076;-92
2023/08/01 09:40:09;;;;;;;28.20;25.50;;;;;;;31.32;100.00;100480.78;5050294;28;20063;-91
2023/08/01 09:42:40;;;;;;;25.30;23.20;;;;;;;31.88;100.00;100486.13;5054478;28;20684;-90
2023/08/01 09:45:47;;;;;;;30.08;27.23;;;;;;;31.54;100.00;100493.13;5053163;28;20140;-92
2023/08/01 09:48:23;;;;;;;25.95;23.75;;;;;;;30.77;100.00;100485.91;5049439;28;20430;-93
2023/08/01 09:51:05;;;;;;;24.88;22.52;;;;;;;29.60;100.00;100483.81;5060058;28;20045;-93
2023/08/01 09:53:33;;;;;;;25.00;22.80;;;;;;;30.22;100.00;100481.91;5050833;28;20041;-92
2023/08/01 09:56:01;;;;;;;24.63;22.45;;;;;;;29.82;100.00;100476.31;5054377;28;20068;-92
2023/08/01 09:58:32;;;;;;;25.65;23.40;;;;;;;29.82;100.00;100466.16;5055336;28;20055;-91
2023/08/01 10:01:00;;;;;;;23.53;21.43;;;;;;;30.31;100.00;100462.63;5055762;28;20055;-85
2023/08/01 10:03:29;;;;;;;25.08;23.02;;;;;;;29.92;100.00;100464.91;5057280;28;20330;-85
2023/08/01 10:06:23;;;;;;;23.83;21.63;;;;;;;30.60;100.00;100458.78;5057541;28;20048;-91
2023/08/01 10:08:52;;;;;;;25.20;22.75;;;;;;;29.47;100.00;100459.50;5055528;28;20049;-94
2023/08/01 10:11:22;;;;;;;25.33;23.23;;;;;;;30.44;100.00;100446.94;5063868;28;20076;-92
2023/08/01 10:13:57;;;;;;;24.98;22.60;;;;;;;30.29;100.00;100451.22;5061385;28;20126;-92
2023/08/01 10:16:27;;;;;;;27.40;25.30;;;;;;;30.13;100.00;100448.34;5056138;28;20136;-91
2023/08/01 10:18:55;;;;;;;28.35;26.15;;;;;;;30.60;100.00;100447.03;5051435;28;20080;-92
2023/08/01 10:21:26;;;;;;;28.92;26.42;;;;;;;29.98;100.00;100443.56;5056392;28;20052;-84
2023/08/01 10:23:56;;;;;;;30.70;28.08;;;;;;;30.68;100.00;100443.34;5056980;28;20505;-85
2023/08/01 10:26:23;;;;;;;28.63;26.52;;;;;;;29.77;100.00;100443.69;5055770;28;20043;-84
2023/08/01 10:28:52;;;;;;;26.23;24.13;;;;;;;29.67;100.00;100444.94;5055801;28;20049;-84
2023/08/01 10:31:22;;;;;;;31.33;28.83;;;;;;;29.27;100.00;100447.50;5056418;28;20040;-84
2023/08/01 10:33:50;;;;;;;29.80;27.50;;;;;;;29.56;100.00;100439.13;5052260;28;20041;-84
2023/08/01 10:36:18;;;;;;;29.83;27.23;;;;;;;29.12;100.00;100438.00;5056167;28;20407;-85
2023/08/01 10:38:53;;;;;;;28.75;26.20;;;;;;;29.65;100.00;100428.06;5055747;28;20521;-84
2023/08/01 10:41:21;;;;;;;27.08;24.92;;;;;;;29.53;100.00;100431.56;5056847;28;20110;-84
2023/08/01 10:43:48;;;;;;;26.67;24.48;;;;;;;29.76;100.00;100421.00;5054578;28;20063;-85
2023/08/01 10:46:15;;;;;;;28.88;26.52;;;;;;;29.68;100.00;100419.19;5056490;28;20045;-84
2023/08/01 10:48:53;;;;;;;27.92;25.52;;;;;;;30.13;100.00;100427.25;5055715;28;20504;-85
2023/08/01 10:51:20;;;;;;;25.60;23.50;;;;;;;29.99;100.00;100424.09;5055876;28;20047;-84
2023/08/01 10:53:47;;;;;;;27.23;24.92;;;;;;;30.23;100.00;100422.47;5058168;28;20071;-84
2023/08/01 10:56:20;;;;;;;25.85;23.48;;;;;;;30.05;100.00;100428.19;5056178;28;20045;-84
2023/08/01 10:58:48;;;;;;;27.88;25.50;;;;;;;29.71;100.00;100409.50;5055956;28;20067;-85
2023/08/01 11:01:15;;;;;;;29.20;27.00;;;;;;;30.01;100.00;100413.56;5058036;28;20045;-85
2023/08/01 11:03:44;;;;;;;29.70;27.38;;;;;;;29.86;100.00;100408.78;5052176;28;20143;-84
2023/08/01 11:06:10;;;;;;;26.48;24.25;;;;;;;29.66;100.00;100414.06;5053805;28;20135;-84
2023/08/01 11:08:38;;;;;;;28.30;25.98;;;;;;;29.33;100.00;100403.19;5055838;28;20056;-92
2023/08/01 11:11:15;;;;;;;29.35;26.92;;;;;;;29.83;100.00;100393.84;5058410;28;20513;-92
2023/08/01 11:14:02;;;;;;;29.80;27.15;;;;;;;29.67;100.00;100392.97;5050957;28;20080;-92
2023/08/01 11:16:30;;;;;;;28.38;26.17;;;;;;;29.65;100.00;100392.50;5051738;28;20044;-94
2023/08/01 11:18:57;;;;;;;28.30;25.90;;;;;;;29.59;100.00;100396.56;5046445;28;20061;-92
2023/08/01 11:21:36;;;;;;;27.35;25.15;;;;;;;30.08;100.00;100391.91;5054003;28;20053;-91
2023/08/01 11:24:07;;;;;;;34.30;31.40;;;;;;;29.96;100.00;100391.13;5053830;28;20044;-94
2023/08/01 11:26:42;;;;;;;33.33;30.92;;;;;;;29.86;100.00;100378.69;5054230;28;20434;-92
2023/08/01 11:29:12;;;;;;;30.98;28.58;;;;;;;29.61;100.00;100383.34;5054355;28;20053;-93
2023/08/01 11:32:06;;;;;;;34.22;31.50;;;;;;;30.17;100.00;100374.53;5051893;28;20059;-92
2023/08/01 11:34:44;;;;;;;28.63;26.20;;;;;;;31.32;100.00;100375.72;5054097;28;20063;-93
2023/08/01 11:37:11;;;;;;;36.72;33.97;;;;;;;31.92;100.00;100368.16;5053507;28;20045;-92
2023/08/01 11:39:57;;;;;;;33.92;31.48;;;;;;;32.10;100.00;100368.53;5056248;28;20079;-91